sensor_id;sensor_type;location;lat;lon;timestamp;P1;durP1;ratioP1;P2;durP2;ratioP2
68432;SDS011;55412;51.350;17.056;2024-03-08T00:01:35;37.88;;;14.65;;
68432;SDS011;55412;51.350;17.056;2024-03-08T00:04:01;36.72;;;13.93;;
68432;SDS011;55412;51.350;17.056;2024-03-08T00:06:26;36.57;;;14.53;;
68432;SDS011;55412;51.350;17.056;2024-03-08T00:08:52;42.55;;;14.73;;
68432;SDS011;55412;51.350;17.056;2024-03-08T00:11:18;41.37;;;13.50;;
68432;SDS011;55412;51.350;17.056;2024-03-08T00:13:43;39.20;;;14.55;;
68432;SDS011;55412;51.350;17.056;2024-03-08T00:16:10;40.15;;;15.60;;
68432;SDS011;55412;51.350;17.056;2024-03-08T00:18:35;33.95;;;14.15;;
68432;SDS011;55412;51.350;17.056;2024-03-08T00:21:01;39.08;;;13.98;;
68432;SDS011;55412;51.350;17.056;2024-03-08T00:23:27;41.20;;;14.33;;
68432;SDS011;55412;51.350;17.056;2024-03-08T00:25:53;31.70;;;13.10;;
68432;SDS011;55412;51.350;17.056;2024-03-08T00:28:21;33.92;;;13.80;;
68432;SDS011;55412;51.350;17.056;2024-03-08T00:30:46;37.70;;;13.55;;
68432;SDS011;55412;51.350;17.056;2024-03-08T00:33:12;38.60;;;14.33;;
68432;SDS011;55412;51.350;17.056;2024-03-08T00:35:38;37.23;;;14.23;;
68432;SDS011;55412;51.350;17.056;2024-03-08T00:38:03;43.33;;;15.20;;
68432;SDS011;55412;51.350;17.056;2024-03-08T00:40:29;33.67;;;13.07;;
68432;SDS011;55412;51.350;17.056;2024-03-08T00:42:54;36.72;;;13.65;;
68432;SDS011;55412;51.350;17.056;2024-03-08T00:45:20;44.03;;;15.47;;
68432;SDS011;55412;51.350;17.056;2024-03-08T00:47:47;44.75;;;15.35;;
68432;SDS011;55412;51.350;17.056;2024-03-08T00:50:12;36.13;;;14.67;;
68432;SDS011;55412;51.350;17.056;2024-03-08T00:52:38;39.08;;;14.38;;
68432;SDS011;55412;51.350;17.056;2024-03-08T00:55:04;44.63;;;15.23;;
68432;SDS011;55412;51.350;17.056;2024-03-08T00:57:30;39.85;;;14.95;;
68432;SDS011;55412;51.350;17.056;2024-03-08T00:59:55;50.03;;;15.97;;
68432;SDS011;55412;51.350;17.056;2024-03-08T01:02:21;39.78;;;15.13;;
68432;SDS011;55412;51.350;17.056;2024-03-08T01:04:48;55.83;;;18.67;;
68432;SDS011;55412;51.350;17.056;2024-03-08T01:07:14;43.63;;;16.83;;
68432;SDS011;55412;51.350;17.056;2024-03-08T01:09:40;40.50;;;13.13;;
68432;SDS011;55412;51.350;17.056;2024-03-08T01:12:06;38.93;;;14.90;;
68432;SDS011;55412;51.350;17.056;2024-03-08T01:14:32;42.65;;;15.68;;
68432;SDS011;55412;51.350;17.056;2024-03-08T01:16:58;38.28;;;14.45;;
68432;SDS011;55412;51.350;17.056;2024-03-08T01:19:24;47.80;;;14.77;;
68432;SDS011;55412;51.350;17.056;2024-03-08T01:21:50;33.20;;;14.02;;
68432;SDS011;55412;51.350;17.056;2024-03-08T01:24:16;45.70;;;16.13;;
68432;SDS011;55412;51.350;17.056;2024-03-08T01:26:42;44.00;;;16.17;;
68432;SDS011;55412;51.350;17.056;2024-03-08T01:29:08;41.38;;;16.17;;
68432;SDS011;55412;51.350;17.056;2024-03-08T01:31:33;41.47;;;15.20;;
68432;SDS011;55412;51.350;17.056;2024-03-08T01:34:01;37.08;;;14.50;;
68432;SDS011;55412;51.350;17.056;2024-03-08T01:36:27;34.13;;;15.23;;
68432;SDS011;55412;51.350;17.056;2024-03-08T01:38:52;43.13;;;15.80;;
68432;SDS011;55412;51.350;17.056;2024-03-08T01:41:18;37.50;;;15.03;;
68432;SDS011;55412;51.350;17.056;2024-03-08T01:43:44;39.75;;;14.27;;
68432;SDS011;55412;51.350;17.056;2024-03-08T01:46:10;34.10;;;12.77;;
68432;SDS011;55412;51.350;17.056;2024-03-08T01:48:40;39.30;;;14.85;;
68432;SDS011;55412;51.350;17.056;2024-03-08T01:51:06;44.77;;;16.90;;
68432;SDS011;55412;51.350;17.056;2024-03-08T01:53:32;39.25;;;14.43;;
68432;SDS011;55412;51.350;17.056;2024-03-08T01:55:59;43.88;;;14.88;;
68432;SDS011;55412;51.350;17.056;2024-03-08T01:58:28;44.55;;;14.77;;
68432;SDS011;55412;51.350;17.056;2024-03-08T02:00:54;37.55;;;13.57;;
68432;SDS011;55412;51.350;17.056;2024-03-08T02:03:22;38.47;;;15.02;;
68432;SDS011;55412;51.350;17.056;2024-03-08T02:05:47;38.33;;;14.10;;
68432;SDS011;55412;51.350;17.056;2024-03-08T02:08:14;56.08;;;17.83;;
68432;SDS011;55412;51.350;17.056;2024-03-08T02:10:40;45.22;;;15.20;;
68432;SDS011;55412;51.350;17.056;2024-03-08T02:13:09;38.50;;;14.85;;
68432;SDS011;55412;51.350;17.056;2024-03-08T02:18:21;52.95;;;18.70;;
68432;SDS011;55412;51.350;17.056;2024-03-08T02:20:48;39.65;;;16.42;;
68432;SDS011;55412;51.350;17.056;2024-03-08T02:23:15;53.92;;;20.70;;
68432;SDS011;55412;51.350;17.056;2024-03-08T02:25:40;50.17;;;19.17;;
68432;SDS011;55412;51.350;17.056;2024-03-08T02:28:09;56.03;;;19.73;;
68432;SDS011;55412;51.350;17.056;2024-03-08T02:30:39;43.10;;;16.88;;
68432;SDS011;55412;51.350;17.056;2024-03-08T02:33:05;50.22;;;16.52;;
68432;SDS011;55412;51.350;17.056;2024-03-08T02:35:32;52.58;;;19.05;;
68432;SDS011;55412;51.350;17.056;2024-03-08T02:37:58;46.08;;;17.15;;
68432;SDS011;55412;51.350;17.056;2024-03-08T02:40:28;44.70;;;17.20;;
68432;SDS011;55412;51.350;17.056;2024-03-08T02:42:54;42.92;;;16.25;;
68432;SDS011;55412;51.350;17.056;2024-03-08T02:45:20;52.33;;;17.45;;
68432;SDS011;55412;51.350;17.056;2024-03-08T02:47:46;47.93;;;16.80;;
68432;SDS011;55412;51.350;17.056;2024-03-08T02:50:14;52.00;;;18.35;;
68432;SDS011;55412;51.350;17.056;2024-03-08T02:52:41;33.78;;;13.23;;
68432;SDS011;55412;51.350;17.056;2024-03-08T02:55:11;36.55;;;13.23;;
68432;SDS011;55412;51.350;17.056;2024-03-08T02:57:40;29.05;;;11.57;;
68432;SDS011;55412;51.350;17.056;2024-03-08T03:00:06;34.57;;;12.33;;
68432;SDS011;55412;51.350;17.056;2024-03-08T03:02:36;33.92;;;10.88;;
68432;SDS011;55412;51.350;17.056;2024-03-08T03:05:02;39.20;;;14.10;;
68432;SDS011;55412;51.350;17.056;2024-03-08T03:07:31;39.33;;;12.38;;
68432;SDS011;55412;51.350;17.056;2024-03-08T03:09:58;38.22;;;12.18;;
68432;SDS011;55412;51.350;17.056;2024-03-08T03:12:25;35.83;;;13.57;;
68432;SDS011;55412;51.350;17.056;2024-03-08T03:14:52;34.83;;;12.75;;
68432;SDS011;55412;51.350;17.056;2024-03-08T03:17:18;32.58;;;14.00;;
68432;SDS011;55412;51.350;17.056;2024-03-08T03:19:45;42.80;;;14.50;;
68432;SDS011;55412;51.350;17.056;2024-03-08T03:22:11;40.28;;;15.10;;
68432;SDS011;55412;51.350;17.056;2024-03-08T03:24:37;43.45;;;15.50;;
68432;SDS011;55412;51.350;17.056;2024-03-08T03:27:04;35.30;;;14.63;;
68432;SDS011;55412;51.350;17.056;2024-03-08T03:29:39;40.13;;;14.07;;
68432;SDS011;55412;51.350;17.056;2024-03-08T03:32:07;30.40;;;12.55;;
68432;SDS011;55412;51.350;17.056;2024-03-08T03:34:34;45.75;;;14.82;;
68432;SDS011;55412;51.350;17.056;2024-03-08T03:37:03;38.90;;;13.63;;
68432;SDS011;55412;51.350;17.056;2024-03-08T03:39:37;37.42;;;14.82;;
68432;SDS011;55412;51.350;17.056;2024-03-08T03:42:22;39.03;;;14.83;;
68432;SDS011;55412;51.350;17.056;2024-03-08T03:44:49;29.42;;;10.02;;
68432;SDS011;55412;51.350;17.056;2024-03-08T03:47:15;37.75;;;15.32;;
68432;SDS011;55412;51.350;17.056;2024-03-08T03:49:41;41.20;;;15.50;;
68432;SDS011;55412;51.350;17.056;2024-03-08T03:52:07;28.13;;;10.68;;
68432;SDS011;55412;51.350;17.056;2024-03-08T03:54:34;26.60;;;11.57;;
68432;SDS011;55412;51.350;17.056;2024-03-08T03:56:59;36.35;;;14.18;;
68432;SDS011;55412;51.350;17.056;2024-03-08T03:59:25;37.37;;;13.47;;
68432;SDS011;55412;51.350;17.056;2024-03-08T04:01:52;39.80;;;14.77;;
68432;SDS011;55412;51.350;17.056;2024-03-08T04:04:19;26.98;;;10.25;;
68432;SDS011;55412;51.350;17.056;2024-03-08T04:06:45;43.78;;;13.02;;
68432;SDS011;55412;51.350;17.056;2024-03-08T04:09:11;30.87;;;10.23;;
68432;SDS011;55412;51.350;17.056;2024-03-08T04:11:37;42.35;;;13.35;;
68432;SDS011;55412;51.350;17.056;2024-03-08T04:14:03;34.50;;;14.45;;
68432;SDS011;55412;51.350;17.056;2024-03-08T04:16:30;26.52;;;11.13;;
68432;SDS011;55412;51.350;17.056;2024-03-08T04:18:56;29.67;;;11.03;;
68432;SDS011;55412;51.350;17.056;2024-03-08T04:21:25;38.88;;;14.25;;
68432;SDS011;55412;51.350;17.056;2024-03-08T04:23:50;40.03;;;14.57;;
68432;SDS011;55412;51.350;17.056;2024-03-08T04:26:16;34.57;;;13.87;;
68432;SDS011;55412;51.350;17.056;2024-03-08T04:28:43;44.85;;;15.18;;
68432;SDS011;55412;51.350;17.056;2024-03-08T04:31:09;40.08;;;14.52;;
68432;SDS011;55412;51.350;17.056;2024-03-08T04:33:35;36.93;;;14.03;;
68432;SDS011;55412;51.350;17.056;2024-03-08T04:36:01;27.35;;;11.98;;
68432;SDS011;55412;51.350;17.056;2024-03-08T04:38:29;31.92;;;13.13;;
68432;SDS011;55412;51.350;17.056;2024-03-08T04:40:56;36.73;;;13.67;;
68432;SDS011;55412;51.350;17.056;2024-03-08T04:43:22;45.13;;;14.32;;
68432;SDS011;55412;51.350;17.056;2024-03-08T04:45:51;48.47;;;16.45;;
68432;SDS011;55412;51.350;17.056;2024-03-08T04:48:18;47.63;;;15.57;;
68432;SDS011;55412;51.350;17.056;2024-03-08T04:50:45;33.47;;;13.40;;
68432;SDS011;55412;51.350;17.056;2024-03-08T04:53:11;31.93;;;12.73;;
68432;SDS011;55412;51.350;17.056;2024-03-08T04:55:36;24.38;;;8.73;;
68432;SDS011;55412;51.350;17.056;2024-03-08T04:58:02;39.88;;;12.65;;
68432;SDS011;55412;51.350;17.056;2024-03-08T05:00:31;36.60;;;13.82;;
68432;SDS011;55412;51.350;17.056;2024-03-08T05:02:57;31.88;;;12.55;;
68432;SDS011;55412;51.350;17.056;2024-03-08T05:05:23;44.90;;;15.20;;
68432;SDS011;55412;51.350;17.056;2024-03-08T05:07:50;35.20;;;14.05;;
68432;SDS011;55412;51.350;17.056;2024-03-08T05:10:15;39.90;;;14.05;;
68432;SDS011;55412;51.350;17.056;2024-03-08T05:12:43;38.15;;;14.10;;
68432;SDS011;55412;51.350;17.056;2024-03-08T05:15:09;39.47;;;14.57;;
68432;SDS011;55412;51.350;17.056;2024-03-08T05:17:34;38.53;;;14.43;;
68432;SDS011;55412;51.350;17.056;2024-03-08T05:20:00;39.17;;;14.43;;
68432;SDS011;55412;51.350;17.056;2024-03-08T05:22:27;39.10;;;14.88;;
68432;SDS011;55412;51.350;17.056;2024-03-08T05:24:53;40.58;;;15.68;;
68432;SDS011;55412;51.350;17.056;2024-03-08T05:27:18;43.27;;;15.07;;
68432;SDS011;55412;51.350;17.056;2024-03-08T05:29:44;41.83;;;15.50;;
68432;SDS011;55412;51.350;17.056;2024-03-08T05:32:11;44.63;;;13.65;;
68432;SDS011;55412;51.350;17.056;2024-03-08T05:34:37;36.23;;;13.40;;
68432;SDS011;55412;51.350;17.056;2024-03-08T05:37:03;36.03;;;11.77;;
68432;SDS011;55412;51.350;17.056;2024-03-08T05:39:29;31.00;;;12.80;;
68432;SDS011;55412;51.350;17.056;2024-03-08T05:41:54;13.63;;;5.13;;
68432;SDS011;55412;51.350;17.056;2024-03-08T05:44:21;32.55;;;11.10;;
68432;SDS011;55412;51.350;17.056;2024-03-08T05:46:47;36.08;;;12.63;;
68432;SDS011;55412;51.350;17.056;2024-03-08T05:49:13;39.83;;;11.60;;
68432;SDS011;55412;51.350;17.056;2024-03-08T05:51:39;30.15;;;12.32;;
68432;SDS011;55412;51.350;17.056;2024-03-08T05:54:09;38.50;;;14.80;;
68432;SDS011;55412;51.350;17.056;2024-03-08T05:56:36;36.83;;;14.43;;
68432;SDS011;55412;51.350;17.056;2024-03-08T05:59:03;43.25;;;15.30;;
68432;SDS011;55412;51.350;17.056;2024-03-08T06:01:29;44.00;;;15.55;;
68432;SDS011;55412;51.350;17.056;2024-03-08T06:03:56;41.22;;;16.65;;
68432;SDS011;55412;51.350;17.056;2024-03-08T06:06:22;32.17;;;11.75;;
68432;SDS011;55412;51.350;17.056;2024-03-08T06:08:48;20.33;;;8.02;;
68432;SDS011;55412;51.350;17.056;2024-03-08T06:11:15;43.10;;;14.57;;
68432;SDS011;55412;51.350;17.056;2024-03-08T06:13:43;45.13;;;14.43;;
68432;SDS011;55412;51.350;17.056;2024-03-08T06:16:09;40.38;;;15.07;;
68432;SDS011;55412;51.350;17.056;2024-03-08T06:18:34;39.33;;;14.10;;
68432;SDS011;55412;51.350;17.056;2024-03-08T06:21:04;22.38;;;7.50;;
68432;SDS011;55412;51.350;17.056;2024-03-08T06:23:34;37.30;;;14.20;;
68432;SDS011;55412;51.350;17.056;2024-03-08T06:26:06;39.45;;;13.55;;
68432;SDS011;55412;51.350;17.056;2024-03-08T06:28:32;48.33;;;14.70;;
68432;SDS011;55412;51.350;17.056;2024-03-08T06:30:59;36.07;;;14.43;;
68432;SDS011;55412;51.350;17.056;2024-03-08T06:33:26;43.13;;;13.77;;
68432;SDS011;55412;51.350;17.056;2024-03-08T06:35:52;36.38;;;13.82;;
68432;SDS011;55412;51.350;17.056;2024-03-08T06:38:19;40.40;;;14.15;;
68432;SDS011;55412;51.350;17.056;2024-03-08T06:40:45;36.30;;;13.55;;
68432;SDS011;55412;51.350;17.056;2024-03-08T06:43:13;24.03;;;8.73;;
68432;SDS011;55412;51.350;17.056;2024-03-08T06:45:43;27.73;;;9.63;;
68432;SDS011;55412;51.350;17.056;2024-03-08T06:48:19;34.45;;;9.80;;
68432;SDS011;55412;51.350;17.056;2024-03-08T06:50:45;32.10;;;10.35;;
68432;SDS011;55412;51.350;17.056;2024-03-08T06:53:12;38.58;;;12.52;;
68432;SDS011;55412;51.350;17.056;2024-03-08T06:55:38;37.33;;;12.55;;
68432;SDS011;55412;51.350;17.056;2024-03-08T06:58:05;34.80;;;12.55;;
68432;SDS011;55412;51.350;17.056;2024-03-08T07:00:32;26.60;;;11.68;;
68432;SDS011;55412;51.350;17.056;2024-03-08T07:02:58;36.70;;;13.60;;
68432;SDS011;55412;51.350;17.056;2024-03-08T07:05:28;24.00;;;8.65;;
68432;SDS011;55412;51.350;17.056;2024-03-08T07:07:57;27.40;;;11.57;;
68432;SDS011;55412;51.350;17.056;2024-03-08T07:10:23;38.88;;;12.45;;
68432;SDS011;55412;51.350;17.056;2024-03-08T07:12:51;38.33;;;14.57;;
68432;SDS011;55412;51.350;17.056;2024-03-08T07:15:18;30.40;;;11.70;;
68432;SDS011;55412;51.350;17.056;2024-03-08T07:17:45;35.45;;;12.88;;
68432;SDS011;55412;51.350;17.056;2024-03-08T07:20:12;40.15;;;12.98;;
68432;SDS011;55412;51.350;17.056;2024-03-08T07:22:44;34.70;;;13.88;;
68432;SDS011;55412;51.350;17.056;2024-03-08T07:25:12;33.10;;;13.48;;
68432;SDS011;55412;51.350;17.056;2024-03-08T07:27:52;39.88;;;13.18;;
68432;SDS011;55412;51.350;17.056;2024-03-08T07:30:24;31.92;;;12.13;;
68432;SDS011;55412;51.350;17.056;2024-03-08T07:33:12;34.70;;;13.30;;
68432;SDS011;55412;51.350;17.056;2024-03-08T07:35:38;29.10;;;11.40;;
68432;SDS011;55412;51.350;17.056;2024-03-08T07:38:05;33.50;;;12.57;;
68432;SDS011;55412;51.350;17.056;2024-03-08T07:40:41;33.10;;;11.52;;
68432;SDS011;55412;51.350;17.056;2024-03-08T07:43:09;32.15;;;11.20;;
68432;SDS011;55412;51.350;17.056;2024-03-08T07:45:39;29.85;;;11.57;;
68432;SDS011;55412;51.350;17.056;2024-03-08T07:48:04;31.48;;;10.25;;
68432;SDS011;55412;51.350;17.056;2024-03-08T07:50:36;35.63;;;13.52;;
68432;SDS011;55412;51.350;17.056;2024-03-08T07:53:05;31.27;;;13.00;;
68432;SDS011;55412;51.350;17.056;2024-03-08T07:55:32;33.53;;;12.03;;
68432;SDS011;55412;51.350;17.056;2024-03-08T07:58:04;35.65;;;14.15;;
68432;SDS011;55412;51.350;17.056;2024-03-08T08:00:39;35.20;;;14.32;;
68432;SDS011;55412;51.350;17.056;2024-03-08T08:03:08;33.78;;;13.60;;
68432;SDS011;55412;51.350;17.056;2024-03-08T08:05:34;39.43;;;14.60;;
68432;SDS011;55412;51.350;17.056;2024-03-08T08:08:13;38.65;;;16.08;;
68432;SDS011;55412;51.350;17.056;2024-03-08T08:10:38;36.53;;;14.88;;
68432;SDS011;55412;51.350;17.056;2024-03-08T08:13:04;35.65;;;15.35;;
68432;SDS011;55412;51.350;17.056;2024-03-08T08:15:30;38.13;;;15.63;;
68432;SDS011;55412;51.350;17.056;2024-03-08T08:18:00;31.75;;;12.70;;
68432;SDS011;55412;51.350;17.056;2024-03-08T08:20:27;42.00;;;15.18;;
68432;SDS011;55412;51.350;17.056;2024-03-08T08:22:59;38.08;;;13.80;;
68432;SDS011;55412;51.350;17.056;2024-03-08T08:25:25;28.57;;;13.40;;
68432;SDS011;55412;51.350;17.056;2024-03-08T08:27:51;34.50;;;12.60;;
68432;SDS011;55412;51.350;17.056;2024-03-08T08:30:18;31.23;;;13.02;;
68432;SDS011;55412;51.350;17.056;2024-03-08T08:32:44;35.53;;;13.55;;
68432;SDS011;55412;51.350;17.056;2024-03-08T08:35:12;29.63;;;13.02;;
68432;SDS011;55412;51.350;17.056;2024-03-08T08:37:38;33.90;;;14.27;;
68432;SDS011;55412;51.350;17.056;2024-03-08T08:40:04;39.88;;;13.98;;
68432;SDS011;55412;51.350;17.056;2024-03-08T08:42:34;27.17;;;12.43;;
68432;SDS011;55412;51.350;17.056;2024-03-08T08:45:01;32.40;;;12.43;;
68432;SDS011;55412;51.350;17.056;2024-03-08T08:47:26;31.83;;;12.77;;
68432;SDS011;55412;51.350;17.056;2024-03-08T08:49:53;29.95;;;13.25;;
68432;SDS011;55412;51.350;17.056;2024-03-08T08:52:19;33.78;;;12.02;;
68432;SDS011;55412;51.350;17.056;2024-03-08T08:54:48;27.27;;;11.25;;
68432;SDS011;55412;51.350;17.056;2024-03-08T08:57:17;30.07;;;12.50;;
68432;SDS011;55412;51.350;17.056;2024-03-08T08:59:46;31.15;;;13.10;;
68432;SDS011;55412;51.350;17.056;2024-03-08T09:02:11;28.23;;;10.85;;
68432;SDS011;55412;51.350;17.056;2024-03-08T09:04:38;33.00;;;10.67;;
68432;SDS011;55412;51.350;17.056;2024-03-08T09:07:03;22.67;;;9.45;;
68432;SDS011;55412;51.350;17.056;2024-03-08T09:09:31;26.45;;;11.30;;
68432;SDS011;55412;51.350;17.056;2024-03-08T09:12:00;24.77;;;11.13;;
68432;SDS011;55412;51.350;17.056;2024-03-08T09:14:29;23.53;;;10.33;;
68432;SDS011;55412;51.350;17.056;2024-03-08T09:16:59;26.27;;;9.82;;
68432;SDS011;55412;51.350;17.056;2024-03-08T09:19:25;16.17;;;6.45;;
68432;SDS011;55412;51.350;17.056;2024-03-08T09:21:51;16.90;;;7.38;;
68432;SDS011;55412;51.350;17.056;2024-03-08T09:24:17;20.00;;;8.30;;
68432;SDS011;55412;51.350;17.056;2024-03-08T09:26:42;20.63;;;9.23;;
68432;SDS011;55412;51.350;17.056;2024-03-08T09:29:08;27.77;;;11.10;;
68432;SDS011;55412;51.350;17.056;2024-03-08T09:31:38;21.98;;;9.65;;
68432;SDS011;55412;51.350;17.056;2024-03-08T09:34:04;26.83;;;10.02;;
68432;SDS011;55412;51.350;17.056;2024-03-08T09:36:30;21.20;;;8.70;;
68432;SDS011;55412;51.350;17.056;2024-03-08T09:38:57;22.10;;;9.93;;
68432;SDS011;55412;51.350;17.056;2024-03-08T09:41:23;22.83;;;10.07;;
68432;SDS011;55412;51.350;17.056;2024-03-08T09:43:49;21.93;;;9.50;;
68432;SDS011;55412;51.350;17.056;2024-03-08T09:46:14;22.88;;;9.07;;
68432;SDS011;55412;51.350;17.056;2024-03-08T09:48:44;25.42;;;10.38;;
68432;SDS011;55412;51.350;17.056;2024-03-08T09:51:11;21.63;;;9.13;;
68432;SDS011;55412;51.350;17.056;2024-03-08T09:53:40;23.02;;;10.38;;
68432;SDS011;55412;51.350;17.056;2024-03-08T09:56:09;24.85;;;10.13;;
68432;SDS011;55412;51.350;17.056;2024-03-08T09:58:39;22.33;;;8.80;;
68432;SDS011;55412;51.350;17.056;2024-03-08T10:01:22;21.83;;;8.70;;
68432;SDS011;55412;51.350;17.056;2024-03-08T10:03:48;22.00;;;10.20;;
68432;SDS011;55412;51.350;17.056;2024-03-08T10:06:14;21.30;;;9.73;;
68432;SDS011;55412;51.350;17.056;2024-03-08T10:08:40;20.07;;;9.47;;
68432;SDS011;55412;51.350;17.056;2024-03-08T10:11:06;23.02;;;9.95;;
68432;SDS011;55412;51.350;17.056;2024-03-08T10:13:32;20.90;;;10.02;;
68432;SDS011;55412;51.350;17.056;2024-03-08T10:16:02;22.90;;;8.75;;
68432;SDS011;55412;51.350;17.056;2024-03-08T10:18:30;19.67;;;8.52;;
68432;SDS011;55412;51.350;17.056;2024-03-08T10:21:07;22.17;;;9.07;;
68432;SDS011;55412;51.350;17.056;2024-03-08T10:23:35;22.50;;;8.73;;
68432;SDS011;55412;51.350;17.056;2024-03-08T10:26:12;20.67;;;8.35;;
68432;SDS011;55412;51.350;17.056;2024-03-08T10:28:45;21.77;;;8.50;;
68432;SDS011;55412;51.350;17.056;2024-03-08T10:31:15;20.15;;;8.63;;
68432;SDS011;55412;51.350;17.056;2024-03-08T10:33:41;20.00;;;8.83;;
68432;SDS011;55412;51.350;17.056;2024-03-08T10:36:07;21.02;;;8.60;;
68432;SDS011;55412;51.350;17.056;2024-03-08T10:38:37;18.95;;;8.30;;
68432;SDS011;55412;51.350;17.056;2024-03-08T10:41:09;19.08;;;8.98;;
68432;SDS011;55412;51.350;17.056;2024-03-08T10:49:17;29.38;;;9.10;;
68432;SDS011;55412;51.350;17.056;2024-03-08T10:52:00;21.73;;;9.00;;
68432;SDS011;55412;51.350;17.056;2024-03-08T10:54:30;17.67;;;7.78;;
68432;SDS011;55412;51.350;17.056;2024-03-08T10:56:58;21.77;;;9.13;;
68432;SDS011;55412;51.350;17.056;2024-03-08T10:59:27;19.08;;;7.93;;
68432;SDS011;55412;51.350;17.056;2024-03-08T11:01:54;18.02;;;7.40;;
68432;SDS011;55412;51.350;17.056;2024-03-08T11:04:24;19.20;;;8.07;;
68432;SDS011;55412;51.350;17.056;2024-03-08T11:06:50;14.48;;;6.40;;
68432;SDS011;55412;51.350;17.056;2024-03-08T11:09:37;12.90;;;6.03;;
68432;SDS011;55412;51.350;17.056;2024-03-08T11:15:15;18.92;;;7.35;;
68432;SDS011;55412;51.350;17.056;2024-03-08T11:17:47;15.40;;;6.57;;
68432;SDS011;55412;51.350;17.056;2024-03-08T11:20:14;15.80;;;6.68;;
68432;SDS011;55412;51.350;17.056;2024-03-08T11:22:42;17.37;;;6.67;;
68432;SDS011;55412;51.350;17.056;2024-03-08T11:25:38;21.75;;;7.78;;
68432;SDS011;55412;51.350;17.056;2024-03-08T11:28:16;17.00;;;6.78;;
68432;SDS011;55412;51.350;17.056;2024-03-08T11:31:13;18.92;;;8.25;;
68432;SDS011;55412;51.350;17.056;2024-03-08T11:33:30;17.08;;;7.07;;
68432;SDS011;55412;51.350;17.056;2024-03-08T11:36:03;15.07;;;6.40;;
68432;SDS011;55412;51.350;17.056;2024-03-08T11:38:50;18.65;;;7.60;;
68432;SDS011;55412;51.350;17.056;2024-03-08T11:43:48;18.55;;;7.40;;
68432;SDS011;55412;51.350;17.056;2024-03-08T11:46:15;16.77;;;7.00;;
68432;SDS011;55412;51.350;17.056;2024-03-08T11:48:43;19.03;;;8.10;;
68432;SDS011;55412;51.350;17.056;2024-03-08T11:51:13;15.18;;;6.72;;
68432;SDS011;55412;51.350;17.056;2024-03-08T11:53:43;16.50;;;7.03;;
68432;SDS011;55412;51.350;17.056;2024-03-08T11:56:11;17.38;;;7.00;;
68432;SDS011;55412;51.350;17.056;2024-03-08T11:58:38;13.13;;;5.80;;
68432;SDS011;55412;51.350;17.056;2024-03-08T12:01:08;16.43;;;6.93;;
68432;SDS011;55412;51.350;17.056;2024-03-08T12:03:40;17.63;;;6.80;;
68432;SDS011;55412;51.350;17.056;2024-03-08T12:06:12;15.70;;;7.20;;
68432;SDS011;55412;51.350;17.056;2024-03-08T12:08:45;14.43;;;6.88;;
68432;SDS011;55412;51.350;17.056;2024-03-08T12:11:18;17.55;;;6.93;;
68432;SDS011;55412;51.350;17.056;2024-03-08T12:13:48;15.40;;;6.73;;
68432;SDS011;55412;51.350;17.056;2024-03-08T12:16:19;14.90;;;6.40;;
68432;SDS011;55412;51.350;17.056;2024-03-08T12:18:46;16.63;;;6.15;;
68432;SDS011;55412;51.350;17.056;2024-03-08T12:21:13;19.17;;;7.18;;
68432;SDS011;55412;51.350;17.056;2024-03-08T12:23:42;17.48;;;7.00;;
68432;SDS011;55412;51.350;17.056;2024-03-08T12:26:23;16.80;;;7.70;;
68432;SDS011;55412;51.350;17.056;2024-03-08T12:28:51;16.30;;;6.90;;
68432;SDS011;55412;51.350;17.056;2024-03-08T12:31:17;16.25;;;7.03;;
68432;SDS011;55412;51.350;17.056;2024-03-08T12:33:49;17.33;;;6.80;;
68432;SDS011;55412;51.350;17.056;2024-03-08T12:36:19;17.00;;;7.53;;
68432;SDS011;55412;51.350;17.056;2024-03-08T12:38:46;16.90;;;7.77;;
68432;SDS011;55412;51.350;17.056;2024-03-08T12:41:15;17.45;;;7.07;;
68432;SDS011;55412;51.350;17.056;2024-03-08T12:43:45;16.15;;;6.38;;
68432;SDS011;55412;51.350;17.056;2024-03-08T12:46:22;17.17;;;7.03;;
68432;SDS011;55412;51.350;17.056;2024-03-08T12:48:51;15.73;;;7.47;;
68432;SDS011;55412;51.350;17.056;2024-03-08T12:51:19;20.77;;;7.70;;
68432;SDS011;55412;51.350;17.056;2024-03-08T12:53:46;20.98;;;8.20;;
68432;SDS011;55412;51.350;17.056;2024-03-08T12:56:12;18.55;;;7.65;;
68432;SDS011;55412;51.350;17.056;2024-03-08T12:58:44;16.30;;;6.68;;
68432;SDS011;55412;51.350;17.056;2024-03-08T13:01:10;18.67;;;7.33;;
68432;SDS011;55412;51.350;17.056;2024-03-08T13:03:37;19.52;;;8.10;;
68432;SDS011;55412;51.350;17.056;2024-03-08T13:06:08;16.65;;;7.70;;
68432;SDS011;55412;51.350;17.056;2024-03-08T13:08:35;20.30;;;7.73;;
68432;SDS011;55412;51.350;17.056;2024-03-08T13:11:04;18.33;;;6.77;;
68432;SDS011;55412;51.350;17.056;2024-03-08T13:13:30;18.27;;;7.28;;
68432;SDS011;55412;51.350;17.056;2024-03-08T13:16:00;17.90;;;7.53;;
68432;SDS011;55412;51.350;17.056;2024-03-08T13:18:27;17.27;;;7.47;;
68432;SDS011;55412;51.350;17.056;2024-03-08T13:20:54;18.80;;;8.00;;
68432;SDS011;55412;51.350;17.056;2024-03-08T13:23:20;19.40;;;7.43;;
68432;SDS011;55412;51.350;17.056;2024-03-08T13:25:50;17.50;;;7.30;;
68432;SDS011;55412;51.350;17.056;2024-03-08T13:28:20;16.52;;;7.40;;
68432;SDS011;55412;51.350;17.056;2024-03-08T13:30:53;18.95;;;7.75;;
68432;SDS011;55412;51.350;17.056;2024-03-08T13:33:19;16.92;;;7.55;;
68432;SDS011;55412;51.350;17.056;2024-03-08T13:35:45;18.47;;;8.13;;
68432;SDS011;55412;51.350;17.056;2024-03-08T13:38:15;20.35;;;8.32;;
68432;SDS011;55412;51.350;17.056;2024-03-08T13:40:41;18.52;;;8.02;;
68432;SDS011;55412;51.350;17.056;2024-03-08T13:43:07;15.95;;;7.40;;
68432;SDS011;55412;51.350;17.056;2024-03-08T13:45:34;19.03;;;7.37;;
68432;SDS011;55412;51.350;17.056;2024-03-08T13:48:03;15.70;;;7.22;;
68432;SDS011;55412;51.350;17.056;2024-03-08T13:50:30;14.73;;;7.22;;
68432;SDS011;55412;51.350;17.056;2024-03-08T13:52:56;21.13;;;7.82;;
68432;SDS011;55412;51.350;17.056;2024-03-08T13:55:22;17.00;;;7.27;;
68432;SDS011;55412;51.350;17.056;2024-03-08T13:57:50;18.77;;;7.93;;
68432;SDS011;55412;51.350;17.056;2024-03-08T14:00:16;19.13;;;7.85;;
68432;SDS011;55412;51.350;17.056;2024-03-08T14:02:42;19.90;;;8.07;;
68432;SDS011;55412;51.350;17.056;2024-03-08T14:05:08;20.93;;;8.47;;
68432;SDS011;55412;51.350;17.056;2024-03-08T14:07:38;18.13;;;8.18;;
68432;SDS011;55412;51.350;17.056;2024-03-08T14:10:04;19.65;;;8.27;;
68432;SDS011;55412;51.350;17.056;2024-03-08T14:12:32;23.90;;;8.60;;
68432;SDS011;55412;51.350;17.056;2024-03-08T14:14:58;21.80;;;8.55;;
68432;SDS011;55412;51.350;17.056;2024-03-08T14:17:26;21.90;;;9.07;;
68432;SDS011;55412;51.350;17.056;2024-03-08T14:19:55;21.52;;;8.73;;
68432;SDS011;55412;51.350;17.056;2024-03-08T14:22:21;20.73;;;9.10;;
68432;SDS011;55412;51.350;17.056;2024-03-08T14:24:47;22.40;;;9.65;;
68432;SDS011;55412;51.350;17.056;2024-03-08T14:27:13;21.50;;;9.53;;
68432;SDS011;55412;51.350;17.056;2024-03-08T14:29:40;20.25;;;9.30;;
68432;SDS011;55412;51.350;17.056;2024-03-08T14:32:05;20.40;;;9.25;;